Time;durP1;ratioP1;P1;durP2;ratioP2;P2;SDS_P1;SDS_P2;PMS_P1;PMS_P2;Temp;Humidity;BMP_temperature;BMP_pressure;BME280_temperature;BME280_humidity;BME280_pressure;Samples;Min_cycle;Max_cycle;Signal;HPM_P1;HPM_P2
2021/12/04 00:00:25;;;;;;;23.52;18.40;;;;;;;-144.19;100.00;76732.75;5079890;28;19920;-89
2021/12/04 00:02:54;;;;;;;26.83;19.10;;;;;;;-144.19;100.00;76720.94;5096177;28;20115;-88
2021/12/04 00:05:22;;;;;;;24.02;17.42;;;;;;;-144.19;100.00;76717.00;5079742;28;20044;-89
2021/12/04 00:07:48;;;;;;;;;;;;;;;-144.19;100.00;76724.88;5099149;28;20052;-88
2021/12/04 00:10:20;;;;;;;20.42;16.52;;;;;;;-144.19;100.00;76724.88;5098321;28;19920;-88
2021/12/04 00:12:47;;;;;;;23.15;16.83;;;;;;;-144.19;100.00;76724.88;5096279;28;20056;-88
2021/12/04 00:15:14;;;;;;;20.83;15.55;;;;;;;-144.19;100.00;76726.84;5097371;28;20067;-87
2021/12/04 00:17:40;;;;;;;25.17;17.77;;;;;;;-144.19;100.00;76705.19;5079521;28;20059;-88
2021/12/04 00:20:09;;;;;;;24.92;19.92;;;;;;;-144.19;100.00;76711.09;5096293;28;20052;-88
2021/12/04 00:22:35;;;;;;;24.30;17.80;;;;;;;-144.19;100.00;76709.13;5079474;28;20055;-89
2021/12/04 00:25:07;;;;;;;23.20;16.85;;;;;;;-144.19;100.00;76713.06;5079842;28;20055;-88
2021/12/04 00:27:35;;;;;;;23.38;16.98;;;;;;;-144.19;100.00;76705.19;5096048;28;20052;-88
2021/12/04 00:30:01;;;;;;;20.38;16.52;;;;;;;-144.19;100.00;76718.97;5098103;28;20044;-88
2021/12/04 00:32:33;;;;;;;19.70;15.80;;;;;;;-144.19;100.00;76709.13;5079976;28;20052;-87
2021/12/04 00:35:18;;;;;;;20.48;16.25;;;;;;;-144.19;100.00;76689.44;5078885;28;20056;-86
2021/12/04 00:51:31;;;;;;;24.27;17.20;;;;;;;-144.19;100.00;76685.53;5084696;28;20052;-86
2021/12/04 00:53:57;;;;;;;23.50;17.77;;;;;;;-144.19;100.00;76675.69;5095911;28;20047;-89
2021/12/04 00:56:24;;;;;;;21.57;16.27;;;;;;;-144.19;100.00;76683.53;5057845;28;20624;-88
2021/12/04 00:58:51;;;;;;;22.50;17.30;;;;;;;-144.19;100.00;76681.56;5056934;28;20289;-88
2021/12/04 01:01:19;;;;;;;25.90;19.00;;;;;;;-144.19;100.00;76681.56;5058449;28;20052;-87
2021/12/04 01:03:46;;;;;;;21.45;16.58;;;;;;;-144.19;100.00;76685.53;5058469;28;20048;-89
2021/12/04 01:06:13;;;;;;;28.37;19.07;;;;;;;-144.19;100.00;76673.72;5058831;28;20422;-88
2021/12/04 01:08:46;;;;;;;24.40;17.05;;;;;;;-144.19;100.00;76665.84;5076682;28;20370;-87
2021/12/04 01:11:13;;;;;;;24.90;18.60;;;;;;;-144.19;100.00;76652.06;5058649;28;20128;-87
2021/12/04 01:13:39;;;;;;;27.70;18.98;;;;;;;-144.19;100.00;76657.97;5057519;28;20051;-87
2021/12/04 01:16:06;;;;;;;24.73;17.77;;;;;;;-144.19;100.00;76663.88;5057508;28;20449;-88
2021/12/04 01:18:32;;;;;;;21.85;16.90;;;;;;;-144.19;100.00;76673.72;5058221;28;20060;-88
2021/12/04 01:20:59;;;;;;;23.52;16.40;;;;;;;-144.19;100.00;76669.78;5057438;28;20044;-88
2021/12/04 01:23:25;;;;;;;25.53;18.70;;;;;;;-144.19;100.00;76654.03;5075369;28;20048;-87
2021/12/04 01:25:52;;;;;;;21.88;17.15;;;;;;;-144.19;100.00;76673.72;5057688;28;20721;-87
2021/12/04 01:28:18;;;;;;;25.10;17.63;;;;;;;-144.19;100.00;76667.81;5057943;28;20051;-88
2021/12/04 01:30:45;;;;;;;24.30;17.87;;;;;;;-144.19;100.00;76669.78;5058254;28;20433;-88
2021/12/04 01:33:11;;;;;;;21.83;16.98;;;;;;;-144.19;100.00;76677.66;5057210;28;20297;-87
2021/12/04 01:35:37;;;;;;;24.20;17.80;;;;;;;-144.19;100.00;76673.72;5056483;28;20490;-88
2021/12/04 01:38:04;;;;;;;22.42;16.27;;;;;;;-144.19;100.00;76673.72;5056604;28;20421;-89
2021/12/04 01:40:31;;;;;;;26.95;18.45;;;;;;;-144.19;100.00;76673.72;5075482;28;20048;-89
2021/12/04 01:42:57;;;;;;;25.73;18.00;;;;;;;-144.19;100.00;76675.69;5057076;28;20063;-88
2021/12/04 01:45:24;;;;;;;23.48;17.85;;;;;;;-144.19;100.00;76669.78;5056597;28;20052;-87
2021/12/04 01:47:57;;;;;;;25.15;16.55;;;;;;;-144.19;100.00;76669.78;5074523;28;20048;-88
2021/12/04 01:50:24;;;;;;;25.13;16.88;;;;;;;-144.19;100.00;76671.75;5056509;28;20048;-88
2021/12/04 01:52:50;;;;;;;23.73;16.92;;;;;;;-144.19;100.00;76665.84;5056637;28;20067;-89
2021/12/04 01:55:16;;;;;;;23.40;17.63;;;;;;;-144.19;100.00;76657.97;5067766;28;20251;-86
2021/12/04 01:57:43;;;;;;;23.52;16.23;;;;;;;-144.19;100.00;76669.78;5076064;28;21034;-87
2021/12/04 02:00:10;;;;;;;24.57;16.70;;;;;;;-144.19;100.00;76669.78;5076341;28;21522;-86
2021/12/04 02:02:38;;;;;;;23.75;16.52;;;;;;;-144.19;100.00;76665.84;5094319;28;20130;-88
2021/12/04 02:05:06;;;;;;;27.15;19.63;;;;;;;-144.19;100.00;76663.88;5077022;28;20059;-88
2021/12/04 02:07:32;;;;;;;;;;;;;;;-144.19;100.00;76654.03;5076829;28;20497;-87
2021/12/04 02:09:59;;;;;;;25.60;17.52;;;;;;;-144.19;100.00;76657.97;5076857;28;19920;-89
2021/12/04 02:12:25;;;;;;;30.20;19.05;;;;;;;-144.19;100.00;76665.84;5094620;28;20131;-86
2021/12/04 02:14:52;;;;;;;29.50;20.15;;;;;;;-144.19;100.00;76659.94;5076576;28;20050;-88
2021/12/04 02:17:18;;;;;;;31.43;19.23;;;;;;;-144.19;100.00;76669.78;5077268;28;20486;-87
2021/12/04 02:19:47;;;;;;;28.55;19.80;;;;;;;-144.19;100.00;76659.94;5093716;28;20664;-86
2021/12/04 02:22:14;;;;;;;27.48;20.13;;;;;;;-144.19;100.00;76657.97;5076059;28;20044;-87
2021/12/04 02:24:40;;;;;;;;;;;;;;;-144.19;100.00;76665.84;5077448;28;20070;-88
2021/12/04 02:27:07;;;;;;;28.50;19.52;;;;;;;-144.19;100.00;76661.91;5076514;28;19927;-89
2021/12/04 02:29:33;;;;;;;31.67;19.92;;;;;;;-144.19;100.00;76665.84;5077388;28;20062;-87
2021/12/04 02:32:00;;;;;;;32.55;20.73;;;;;;;-144.19;100.00;76661.91;5076944;28;20044;-89
2021/12/04 02:34:30;;;;;;;33.30;21.58;;;;;;;-144.19;100.00;76646.16;5094886;28;20091;-88
2021/12/04 02:36:58;;;;;;;36.30;21.83;;;;;;;-144.19;100.00;76650.09;5076102;28;20058;-88
2021/12/04 02:39:29;;;;;;;35.25;23.15;;;;;;;-144.19;100.00;76638.28;5093054;28;20051;-87
2021/12/04 02:41:56;;;;;;;42.10;22.65;;;;;;;-144.19;100.00;76640.25;5075437;28;20122;-88
2021/12/04 02:44:33;;;;;;;39.97;23.80;;;;;;;-144.19;100.00;76632.38;5076651;28;20051;-87
2021/12/04 02:47:00;;;;;;;35.70;22.70;;;;;;;-144.19;100.00;76634.34;5075258;28;20394;-88
2021/12/04 02:49:26;;;;;;;36.08;23.58;;;;;;;-144.19;100.00;76634.34;5076245;28;20660;-87
2021/12/04 02:51:53;;;;;;;41.03;22.77;;;;;;;-144.19;100.00;76622.53;5076363;28;20153;-88
2021/12/04 02:54:19;;;;;;;37.58;22.80;;;;;;;-144.19;100.00;76608.75;5073537;28;20055;-88
2021/12/04 02:56:46;;;;;;;40.40;24.43;;;;;;;-144.19;100.00;76622.53;5055698;28;20413;-88
2021/12/04 02:59:13;;;;;;;34.95;22.13;;;;;;;-144.19;100.00;76628.44;5056106;28;20293;-87
2021/12/04 03:01:41;;;;;;;36.08;23.70;;;;;;;-144.19;100.00;76614.66;5055165;28;20051;-87
2021/12/04 03:04:09;;;;;;;38.25;23.55;;;;;;;-144.19;100.00;76610.72;5055598;28;20059;-90
2021/12/04 03:06:46;;;;;;;35.35;22.25;;;;;;;-144.19;100.00;76610.72;5055935;28;20055;-87
2021/12/04 03:09:14;;;;;;;33.63;21.83;;;;;;;-144.19;100.00;76606.78;5077783;28;20422;-87
2021/12/04 03:11:41;;;;;;;36.20;23.25;;;;;;;-144.19;100.00;76608.75;5059934;28;20048;-88
2021/12/04 03:14:08;;;;;;;38.08;21.63;;;;;;;-144.19;100.00;76594.97;5059985;28;20502;-87
2021/12/04 03:16:36;;;;;;;33.33;22.75;;;;;;;-144.19;100.00;76594.97;5059490;28;20506;-88
2021/12/04 03:19:04;;;;;;;34.88;22.63;;;;;;;-144.19;100.00;76596.94;5060491;28;20126;-89
2021/12/04 03:21:31;;;;;;;37.63;24.23;;;;;;;-144.19;100.00;76579.22;5059952;28;20066;-87
2021/12/04 03:24:00;;;;;;;;;;;;;;;-144.19;100.00;76583.16;5060011;28;20056;-89
2021/12/04 03:26:26;;;;;;;38.20;23.50;;;;;;;-144.19;100.00;76583.16;5077390;28;19928;-86
2021/12/04 03:28:55;;;;;;;34.78;20.95;;;;;;;-144.19;100.00;76585.13;5077427;28;20048;-89
2021/12/04 03:42:06;;;;;;;36.60;22.23;;;;;;;-144.19;100.00;76575.28;5094132;28;20047;-87
2021/12/04 03:44:33;;;;;;;34.20;22.17;;;;;;;-144.19;100.00;76565.44;5062304;28;20078;-87
2021/12/04 03:47:01;;;;;;;39.10;21.55;;;;;;;-144.19;100.00;76579.22;5064465;28;20501;-89
2021/12/04 03:49:27;;;;;;;39.65;21.15;;;;;;;-144.19;100.00;76575.28;5059280;28;20106;-87
2021/12/04 03:51:54;;;;;;;31.38;20.52;;;;;;;-144.19;100.00;76577.25;5058627;28;20074;-88
2021/12/04 03:54:20;;;;;;;31.00;19.13;;;;;;;-144.19;100.00;76573.31;5063330;28;20047;-89
2021/12/04 03:56:47;;;;;;;34.78;19.95;;;;;;;-144.19;100.00;76563.47;5077733;28;20044;-89
2021/12/04 03:59:14;;;;;;;32.35;19.80;;;;;;;-144.19;100.00;76563.47;5079040;28;20048;-86
2021/12/04 04:01:40;;;;;;;32.00;20.23;;;;;;;-144.19;100.00;76557.56;5095062;28;20048;-89
2021/12/04 04:04:07;;;;;;;33.92;20.45;;;;;;;-144.19;100.00;76559.53;5096401;28;20097;-87
2021/12/04 04:06:33;;;;;;;27.80;17.50;;;;;;;-144.19;100.00;76559.53;5078678;28;20052;-88
2021/12/04 04:09:02;;;;;;;27.25;17.92;;;;;;;-144.19;100.00;76551.66;5096717;28;20300;-88
2021/12/04 04:11:28;;;;;;;29.27;18.50;;;;;;;-144.19;100.00;76557.56;5078635;28;20048;-87
2021/12/04 04:13:54;;;;;;;31.40;18.97;;;;;;;-144.19;100.00;76547.72;5078772;28;20058;-88
2021/12/04 04:16:21;;;;;;;25.63;17.45;;;;;;;-144.19;100.00;76557.56;5079630;28;20086;-87
2021/12/04 04:18:48;;;;;;;28.10;17.57;;;;;;;-144.19;100.00;76549.69;5078142;28;20109;-88
2021/12/04 04:21:14;;;;;;;25.13;16.73;;;;;;;-144.19;100.00;76559.53;5078347;28;20308;-89
2021/12/04 04:23:41;;;;;;;28.13;17.57;;;;;;;-144.19;100.00;76553.63;5096413;28;20044;-89
2021/12/04 04:26:07;;;;;;;26.65;17.20;;;;;;;-144.19;100.00;76559.53;5077864;28;20048;-89
2021/12/04 04:28:34;;;;;;;25.33;16.90;;;;;;;-144.19;100.00;76561.50;5078037;28;20054;-87
2021/12/04 04:31:00;;;;;;;25.07;15.83;;;;;;;-144.19;100.00;76559.53;5095512;28;20040;-88
2021/12/04 04:33:35;;;;;;;26.70;17.25;;;;;;;-144.19;100.00;76555.59;5081382;28;20285;-86
2021/12/04 04:36:16;;;;;;;26.23;17.80;;;;;;;-144.19;100.00;76559.53;5078971;28;20072;-90
2021/12/04 04:38:55;;;;;;;25.35;17.30;;;;;;;-144.19;100.00;76557.56;5078408;28;20545;-89
2021/12/04 05:11:19;;;;;;;29.38;18.45;;;;;;;-144.19;100.00;76530.00;5074973;28;20054;-88
2021/12/04 05:13:46;;;;;;;26.60;17.25;;;;;;;-144.19;100.00;76520.16;5057114;28;20058;-88
2021/12/04 05:16:14;;;;;;;28.50;17.92;;;;;;;-144.19;100.00;76526.06;5074077;28;20057;-89
2021/12/04 05:18:56;;;;;;;26.73;17.50;;;;;;;-144.19;100.00;76524.09;5057840;28;20114;-89
2021/12/04 05:21:23;;;;;;;28.08;17.13;;;;;;;-144.19;100.00;76528.03;5074624;28;20068;-88
2021/12/04 05:23:53;;;;;;;30.60;18.17;;;;;;;-144.19;100.00;76524.09;5057185;28;20075;-88
2021/12/04 05:26:26;;;;;;;27.27;17.38;;;;;;;-144.19;100.00;76528.03;5074556;28;20127;-87
2021/12/04 05:28:54;;;;;;;27.88;17.67;;;;;;;-144.19;100.00;76526.06;5056841;28;20581;-86
2021/12/04 05:31:21;;;;;;;29.88;18.48;;;;;;;-144.19;100.00;76526.06;5074225;28;20041;-90
2021/12/04 05:33:49;;;;;;;28.38;16.98;;;;;;;-144.19;100.00;76512.28;5057149;28;20122;-89
2021/12/04 05:36:16;;;;;;;30.67;18.65;;;;;;;-144.19;100.00;76516.22;5057615;28;20048;-88
2021/12/04 05:38:43;;;;;;;27.98;17.55;;;;;;;-144.19;100.00;76516.22;5057463;28;20127;-88
2021/12/04 05:41:09;;;;;;;30.73;17.75;;;;;;;-144.19;100.00;76508.34;5056962;28;20063;-88
2021/12/04 05:43:37;;;;;;;29.10;18.10;;;;;;;-144.19;100.00;76496.53;5056801;28;20139;-88
2021/12/04 05:46:15;;;;;;;33.33;19.17;;;;;;;-144.19;100.00;76494.59;5056357;28;20135;-88
2021/12/04 05:48:53;;;;;;;28.00;17.30;;;;;;;-144.19;100.00;76488.69;5073108;28;20060;-87
2021/12/04 05:51:28;;;;;;;27.65;17.20;;;;;;;-144.19;100.00;76512.28;5056564;28;20049;-88
2021/12/04 05:54:19;;;;;;;27.58;17.00;;;;;;;-144.19;100.00;76500.47;5056595;28;20052;-90
2021/12/04 05:56:45;;;;;;;29.77;17.33;;;;;;;-144.19;100.00;76508.34;5056394;28;20052;-89
2021/12/04 05:59:11;;;;;;;31.23;18.43;;;;;;;-144.19;100.00;76504.41;5056035;28;20049;-88
2021/12/04 06:01:38;;;;;;;28.77;17.50;;;;;;;-144.19;100.00;76510.31;5056238;28;20040;-90
2021/12/04 06:04:04;;;;;;;31.33;18.85;;;;;;;-144.19;100.00;76516.22;5057079;28;20650;-89
2021/12/04 06:06:31;;;;;;;29.27;17.93;;;;;;;-144.19;100.00;76508.34;5056040;28;20127;-88
2021/12/04 06:09:03;;;;;;;26.95;17.20;;;;;;;-144.19;100.00;76496.53;5056652;28;20648;-88
2021/12/04 06:11:30;;;;;;;30.15;17.55;;;;;;;-144.19;100.00;76500.47;5056471;28;20051;-89
2021/12/04 06:13:57;;;;;;;28.30;17.83;;;;;;;-144.19;100.00;76496.53;5056639;28;20058;-88
2021/12/04 06:16:23;;;;;;;28.67;17.38;;;;;;;-144.19;100.00;76492.63;5056143;28;20045;-88
2021/12/04 06:18:52;;;;;;;31.25;19.02;;;;;;;-144.19;100.00;76488.69;5060582;28;20044;-89
2021/12/04 06:24:06;;;;;;;31.27;18.60;;;;;;;-144.19;99.97;76480.81;5093954;28;20069;-90
2021/12/04 06:26:34;;;;;;;28.17;17.65;;;;;;;-144.19;100.00;76482.78;5093813;28;20080;-88
2021/12/04 06:29:02;;;;;;;28.70;17.48;;;;;;;-144.19;99.77;76480.81;5075502;28;20123;-88
2021/12/04 06:31:30;;;;;;;28.13;16.92;;;;;;;-144.19;99.73;76472.94;5076146;28;20048;-89
2021/12/04 06:33:57;;;;;;;29.45;18.67;;;;;;;-144.19;99.64;76472.94;5076066;28;20596;-88
2021/12/04 06:36:25;;;;;;;27.00;16.65;;;;;;;-144.19;99.62;76488.69;5091668;28;20138;-90
2021/12/04 06:38:53;;;;;;;23.95;16.65;;;;;;;-144.19;99.43;76484.75;5093203;28;20066;-90
2021/12/04 06:41:19;;;;;;;25.80;15.98;;;;;;;-144.19;99.71;76492.63;5075212;28;20101;-88
2021/12/04 06:43:49;;;;;;;28.70;17.35;;;;;;;-144.19;100.00;76484.75;5075457;28;20059;-90
2021/12/04 06:46:17;;;;;;;27.92;15.38;;;;;;;-144.19;99.65;76480.81;5075561;28;20094;-90
2021/12/04 06:48:58;;;;;;;23.70;14.98;;;;;;;-144.19;99.97;76492.63;5093958;28;20058;-89
2021/12/04 06:51:34;;;;;;;24.88;15.30;;;;;;;-144.19;99.83;76480.81;5075290;28;20054;-89
2021/12/04 06:54:07;;;;;;;24.05;16.35;;;;;;;-144.19;99.88;76484.75;5075077;28;20048;-89
2021/12/04 06:56:35;;;;;;;27.38;16.42;;;;;;;-144.19;99.56;76484.75;5055190;28;20453;-90
2021/12/04 06:59:10;;;;;;;22.83;15.38;;;;;;;-144.19;99.70;76492.63;5063687;28;20131;-90
2021/12/04 07:01:38;;;;;;;23.65;15.82;;;;;;;-144.19;99.70;76492.63;5075191;28;20503;-89
2021/12/04 07:04:07;;;;;;;23.48;15.50;;;;;;;-144.19;99.84;76482.78;5069931;28;20139;-88
2021/12/04 07:06:34;;;;;;;24.92;15.13;;;;;;;-144.19;99.69;76484.75;5055797;28;20108;-90
2021/12/04 07:09:03;;;;;;;24.08;16.83;;;;;;;-144.19;99.58;76472.94;5091497;28;20051;-88
2021/12/04 07:11:51;;;;;;;23.17;15.82;;;;;;;-144.19;99.59;76476.88;5074089;28;20059;-89
2021/12/04 07:14:34;;;;;;;21.23;14.43;;;;;;;-144.19;99.29;76476.88;5067680;28;20059;-88
2021/12/04 07:17:03;;;;;;;22.58;14.30;;;;;;;-144.19;99.21;76470.97;5071038;28;20045;-90
2021/12/04 07:19:31;;;;;;;19.85;14.10;;;;;;;-144.19;99.22;76472.94;5069025;28;20428;-86
2021/12/04 07:21:57;;;;;;;24.88;15.38;;;;;;;-144.19;99.34;76472.94;5073195;28;20505;-87
2021/12/04 07:24:26;;;;;;;22.13;15.13;;;;;;;-144.19;99.28;76469.00;5071237;28;20044;-86
2021/12/04 07:26:52;;;;;;;20.95;14.55;;;;;;;-144.19;98.85;76469.00;5090046;28;20161;-88
2021/12/04 07:29:19;;;;;;;23.50;15.30;;;;;;;-144.19;99.27;76469.00;5058265;28;20135;-87
2021/12/04 07:31:45;;;;;;;25.87;16.67;;;;;;;-144.19;99.21;76463.09;5073391;28;20048;-86
2021/12/04 07:34:12;;;;;;;27.00;16.90;;;;;;;-144.19;99.01;76463.09;5059853;28;20044;-88
2021/12/04 07:36:38;;;;;;;26.08;17.73;;;;;;;-144.19;99.02;76453.25;5067316;28;20776;-87
2021/12/04 07:39:05;;;;;;;27.63;17.13;;;;;;;-144.19;99.18;76455.22;5075395;28;20050;-88
2021/12/04 07:41:33;;;;;;;24.20;16.58;;;;;;;-144.19;99.17;76457.19;5067957;28;20044;-88
2021/12/04 07:44:00;;;;;;;28.02;16.08;;;;;;;-144.19;98.94;76449.31;5070689;28;20054;-87
2021/12/04 07:46:26;;;;;;;25.63;16.63;;;;;;;-144.19;98.86;76457.19;5070459;28;20173;-87
2021/12/04 07:48:53;;;;;;;25.58;16.88;;;;;;;-144.19;98.87;76433.56;5074297;28;20052;-86
2021/12/04 07:51:20;;;;;;;27.70;17.60;;;;;;;-144.19;98.70;76439.47;5075282;28;20043;-87
2021/12/04 07:53:49;;;;;;;23.67;16.48;;;;;;;-144.19;98.66;76449.31;5076783;28;20049;-86
2021/12/04 07:56:15;;;;;;;28.00;19.07;;;;;;;-144.19;98.87;76445.38;5089203;28;20071;-88
2021/12/04 07:58:42;;;;;;;26.55;17.55;;;;;;;-144.19;98.78;76449.31;5068017;28;20293;-87
2021/12/04 08:01:11;;;;;;;25.63;18.30;;;;;;;-144.19;98.66;76437.50;5086474;28;20215;-86
2021/12/04 08:03:40;;;;;;;30.70;17.90;;;;;;;-144.19;98.23;76451.28;5066103;28;20063;-89
2021/12/04 08:06:07;;;;;;;23.80;16.47;;;;;;;-144.19;98.69;76445.38;5080610;28;20183;-87
2021/12/04 08:08:34;;;;;;;21.90;17.13;;;;;;;-144.19;98.75;76435.53;5071335;28;20298;-89
2021/12/04 08:11:02;;;;;;;23.88;17.38;;;;;;;-144.19;98.75;76433.56;5093057;28;20056;-86
2021/12/04 08:13:30;;;;;;;26.08;17.58;;;;;;;-144.19;98.75;76441.44;5075931;28;20138;-88
2021/12/04 08:16:00;;;;;;;25.17;18.33;;;;;;;-144.19;98.83;76437.50;5076243;28;20066;-87
2021/12/04 08:18:36;;;;;;;25.02;16.85;;;;;;;-144.19;98.76;76441.44;5074788;28;20058;-89
2021/12/04 08:21:18;;;;;;;29.55;20.95;;;;;;;-144.19;98.62;76429.63;5095421;28;20057;-90
2021/12/04 08:24:06;;;;;;;24.13;16.60;;;;;;;-144.19;98.69;76425.69;5066301;28;20040;-89
2021/12/04 08:26:34;;;;;;;26.25;17.35;;;;;;;-144.19;98.41;76417.81;5074051;28;20493;-88
2021/12/04 08:29:02;;;;;;;24.20;16.60;;;;;;;-144.19;98.10;76415.84;5085121;28;20127;-87
2021/12/04 08:31:29;;;;;;;25.95;16.52;;;;;;;-144.19;98.31;76409.94;5082139;28;20638;-88
2021/12/04 08:33:58;;;;;;;25.40;16.40;;;;;;;-144.19;98.15;76404.03;5066147;28;20101;-87
2021/12/04 08:36:25;;;;;;;22.15;16.00;;;;;;;-144.19;97.92;76396.16;5059449;28;20055;-87
2021/12/04 08:38:52;;;;;;;21.20;15.68;;;;;;;-144.19;97.66;76398.13;5055930;28;20293;-88
2021/12/04 08:41:20;;;;;;;22.02;15.35;;;;;;;-144.19;97.45;76390.25;5058025;28;20049;-87
2021/12/04 08:43:52;;;;;;;20.10;14.52;;;;;;;-144.19;96.90;76409.94;5076443;28;20062;-87
2021/12/04 08:46:20;;;;;;;20.73;16.45;;;;;;;-144.19;96.79;76404.03;5063213;28;20056;-87
2021/12/04 08:48:54;;;;;;;20.27;15.10;;;;;;;-144.19;97.11;76406.00;5057509;28;20139;-87
2021/12/04 08:51:23;;;;;;;22.17;15.63;;;;;;;-144.19;97.53;76398.13;5055916;28;20122;-87
2021/12/04 08:53:52;;;;;;;21.42;16.30;;;;;;;-144.19;97.42;76390.25;5055293;28;20106;-88
2021/12/04 08:56:19;;;;;;;21.70;16.65;;;;;;;-144.19;97.06;76388.28;5074037;28;20051;-88
2021/12/04 08:58:46;;;;;;;22.33;15.88;;;;;;;-144.19;97.05;76386.31;5075011;28;20124;-87
2021/12/04 09:01:25;;;;;;;24.02;17.25;;;;;;;-144.19;97.10;76384.34;5075721;28;20231;-87
2021/12/04 09:03:56;;;;;;;23.70;15.68;;;;;;;-144.19;97.11;76366.63;5075519;28;20076;-87
2021/12/04 09:06:23;;;;;;;23.63;17.52;;;;;;;-144.19;96.84;76378.44;5075262;28;20062;-86
2021/12/04 09:08:50;;;;;;;26.75;19.10;;;;;;;-144.19;97.19;76382.38;5074318;28;20054;-88
2021/12/04 09:11:27;;;;;;;24.17;17.95;;;;;;;-144.19;97.58;76366.63;5091608;28;20070;-86
2021/12/04 09:13:54;;;;;;;24.38;17.40;;;;;;;-144.19;97.32;76360.72;5063095;28;20101;-87
2021/12/04 09:16:25;;;;;;;23.20;16.48;;;;;;;-144.19;97.39;76335.16;5060612;28;20053;-87
2021/12/04 09:18:52;;;;;;;29.98;21.38;;;;;;;-144.19;96.16;76366.63;5055244;28;20530;-86
2021/12/04 09:21:19;;;;;;;;;;;;;;;-144.19;96.43;76370.56;5061720;28;20062;-88
2021/12/04 09:23:50;;;;;;;20.50;14.82;;;;;;;-144.19;96.45;76360.72;5057787;28;19924;-88
2021/12/04 09:26:37;;;;;;;20.95;14.43;;;;;;;-144.19;96.41;76370.56;5065176;28;20144;-88
2021/12/04 09:29:43;;;;;;;19.65;14.65;;;;;;;-144.19;97.00;76358.75;5073983;28;20133;-89
2021/12/04 10:12:48;;;;;;;;;;;;;;;-144.19;95.05;76307.59;5072731;28;20049;-87
2021/12/04 10:33:47;;;;;;;25.55;16.35;;;;;;;-144.19;96.53;76280.03;5074166;28;20056;-86
2021/12/04 10:36:36;;;;;;;24.25;16.05;;;;;;;-144.19;96.14;76272.16;5065597;28;20062;-88
2021/12/04 10:39:28;;;;;;;22.20;15.35;;;;;;;-144.19;96.58;76264.28;5091944;28;20097;-89
2021/12/04 10:42:11;;;;;;;24.48;16.92;;;;;;;-144.19;97.29;76240.66;5077225;28;20441;-87
2021/12/04 10:44:51;;;;;;;24.55;16.40;;;;;;;-144.19;97.05;76224.91;5091522;28;20147;-89
2021/12/04 10:47:26;;;;;;;23.55;17.85;;;;;;;-144.19;97.47;76205.25;5091844;28;20634;-88
2021/12/04 10:50:33;;;;;;;23.27;16.15;;;;;;;-144.19;97.14;76199.34;5075034;28;20105;-88
2021/12/04 10:53:32;;;;;;;21.20;15.65;;;;;;;-144.19;97.18;76181.63;5075550;28;20047;-89
2021/12/04 11:02:55;;;;;;;23.23;15.35;;;;;;;-144.19;95.63;76146.19;5092602;28;20052;-87
2021/12/04 11:20:18;;;;;;;17.42;13.57;;;;;;;-144.19;95.42;76150.13;5094598;28;20067;-88
2021/12/04 11:40:30;;;;;;;14.88;11.95;;;;;;;-144.19;94.03;76098.97;5086577;28;20048;-89
2021/12/04 11:43:16;;;;;;;14.07;10.82;;;;;;;-144.19;94.11;76104.84;5078523;28;20060;-90
2021/12/04 11:48:44;;;;;;;13.75;11.20;;;;;;;-144.19;93.44;76114.69;5055066;28;20498;-87
2021/12/04 11:51:34;;;;;;;14.40;11.07;;;;;;;-144.19;93.70;76104.84;5074987;28;20106;-88
2021/12/04 11:54:10;;;;;;;13.57;11.23;;;;;;;-144.19;93.59;76095.03;5052073;28;20049;-89
2021/12/04 11:56:40;;;;;;;16.70;11.60;;;;;;;-144.19;92.56;76095.03;5087712;28;20075;-89
2021/12/04 11:59:07;;;;;;;14.13;11.52;;;;;;;-144.19;92.77;76095.03;5090435;28;20139;-87
2021/12/04 12:01:44;;;;;;;13.55;11.10;;;;;;;-144.19;92.69;76100.94;5078425;28;20048;-88
2021/12/04 12:04:32;;;;;;;13.82;12.00;;;;;;;-144.19;93.05;76083.22;5066968;28;20105;-88
2021/12/04 12:07:29;;;;;;;14.00;10.70;;;;;;;-144.19;92.71;76095.03;5071370;28;20055;-89
2021/12/04 12:10:16;;;;;;;18.00;11.85;;;;;;;-144.19;93.20;76087.16;5078031;28;20045;-90
2021/12/04 12:12:46;;;;;;;;;;;;;;;-144.19;92.40;76098.97;5063115;28;20048;-87
2021/12/04 12:15:23;;;;;;;14.13;10.98;;;;;;;-144.19;92.29;76098.97;5057533;28;20426;-89
2021/12/04 12:18:22;;;;;;;15.05;11.13;;;;;;;-144.19;92.64;76095.03;5059398;28;20115;-87
2021/12/04 12:21:12;;;;;;;14.25;10.95;;;;;;;-144.19;93.04;76087.16;5071064;28;20482;-89
2021/12/04 12:24:33;;;;;;;13.75;10.63;;;;;;;-144.19;92.98;76087.16;5071547;28;20048;-89
2021/12/04 12:33:12;;;;;;;13.75;10.70;;;;;;;-144.19;93.01;76055.66;5081195;28;20083;-89
2021/12/04 12:36:05;;;;;;;13.82;10.25;;;;;;;-144.19;92.45;76059.59;5087442;28;20128;-88
2021/12/04 12:38:58;;;;;;;13.85;9.85;;;;;;;-144.19;92.22;76045.81;5076852;28;20117;-91
2021/12/04 12:41:48;;;;;;;13.38;10.65;;;;;;;-144.19;92.10;76049.75;5056730;28;20550;-88
2021/12/04 12:44:24;;;;;;;13.13;10.25;;;;;;;-144.19;92.30;76055.66;5056641;28;20056;-86
2021/12/04 12:46:58;;;;;;;16.27;11.52;;;;;;;-144.19;92.40;76067.47;5056452;28;20563;-87
2021/12/04 12:49:45;;;;;;;15.27;10.73;;;;;;;-144.19;92.13;76055.66;5056342;28;20146;-88
2021/12/04 12:52:24;;;;;;;12.10;9.90;;;;;;;-144.19;92.06;76043.84;5071576;28;20599;-90
2021/12/04 12:54:59;;;;;;;15.32;10.65;;;;;;;-144.19;91.94;76028.09;5069674;28;20068;-90
2021/12/04 12:57:48;;;;;;;14.43;11.35;;;;;;;-144.19;92.21;76020.22;5064485;28;20105;-88
2021/12/04 13:11:44;;;;;;;14.20;9.80;;;;;;;-144.19;90.62;76008.41;5100595;28;20123;-89
2021/12/04 13:14:12;;;;;;;11.55;8.90;;;;;;;-144.19;90.16;76006.44;5071888;28;20679;-89
2021/12/04 13:16:42;;;;;;;12.00;9.00;;;;;;;-144.19;89.60;76000.53;5075661;28;20051;-88
2021/12/04 13:19:12;;;;;;;13.45;8.63;;;;;;;-144.19;89.93;76000.53;5075645;28;20051;-89
2021/12/04 13:21:42;;;;;;;13.25;10.18;;;;;;;-144.19;89.20;76004.47;5076186;28;20056;-90
2021/12/04 13:24:10;;;;;;;12.55;9.27;;;;;;;-144.19;89.32;76016.28;5094001;28;20043;-89
2021/12/04 13:26:43;;;;;;;12.88;9.30;;;;;;;-144.19;89.55;76016.28;5093357;28;20039;-89
2021/12/04 13:29:10;;;;;;;11.07;9.10;;;;;;;-144.19;89.23;76010.38;5093377;28;20656;-89
2021/12/04 13:31:38;;;;;;;12.60;9.45;;;;;;;-144.19;88.79;76020.22;5092707;28;20393;-89
2021/12/04 13:34:06;;;;;;;;;;;;;;;-144.19;88.83;76012.34;5093383;28;20075;-89
2021/12/04 13:36:38;;;;;;;12.07;9.77;;;;;;;-144.19;89.46;76000.53;5075344;28;20314;-89
2021/12/04 13:39:08;;;;;;;12.95;9.35;;;;;;;-144.19;90.13;76002.50;5074718;28;20052;-89
2021/12/04 13:41:37;;;;;;;15.23;11.10;;;;;;;-144.19;89.77;76000.53;5090332;28;20059;-88
2021/12/04 13:44:06;;;;;;;14.60;9.90;;;;;;;-144.19;89.36;76000.53;5074475;28;20040;-88
2021/12/04 13:46:41;;;;;;;14.43;11.60;;;;;;;-144.19;89.73;75994.66;5071710;28;20054;-88
2021/12/04 13:49:08;;;;;;;15.27;12.75;;;;;;;-144.19;89.60;75996.63;5071643;28;20101;-89
2021/12/04 13:51:35;;;;;;;14.75;11.15;;;;;;;-144.19;89.42;75996.63;5074865;28;20052;-88
2021/12/04 13:54:02;;;;;;;14.73;10.30;;;;;;;-144.19;89.45;76002.50;5075239;28;20054;-88
2021/12/04 13:56:29;;;;;;;15.00;10.82;;;;;;;-144.19;89.52;75998.59;5094152;28;20630;-88
2021/12/04 13:59:00;;;;;;;15.07;10.50;;;;;;;-144.19;89.41;76000.53;5075780;28;20067;-88
2021/12/04 14:01:30;;;;;;;14.38;11.40;;;;;;;-144.19;89.16;75994.66;5093308;28;20050;-88
2021/12/04 14:04:01;;;;;;;13.65;10.85;;;;;;;-144.19;89.76;76016.28;5075208;28;20044;-88
2021/12/04 14:06:28;;;;;;;12.57;9.80;;;;;;;-144.19;89.89;76008.41;5071184;28;20131;-88
2021/12/04 14:09:00;;;;;;;13.43;9.85;;;;;;;-144.19;89.71;75996.63;5062155;28;20072;-88
2021/12/04 14:11:40;;;;;;;14.38;11.48;;;;;;;-144.19;89.71;76002.50;5046215;28;20418;-88